Time;durP1;ratioP1;P1;durP2;ratioP2;P2;SDS_P1;SDS_P2;PMS_P1;PMS_P2;Temp;Humidity;BMP_temperature;BMP_pressure;BME280_temperature;BME280_humidity;BME280_pressure;Samples;Min_cycle;Max_cycle;Signal;HPM_P1;HPM_P2
2023/09/26 00:01:45;;;;;;;;;;;14.80;99.90;;;;;;7320879;19;9270;-80
2023/09/26 00:04:14;;;;;;;;;;;14.80;99.90;;;;;;7315716;19;9257;-81
2023/09/26 00:06:44;;;;;;;;;;;14.80;99.90;;;;;;7320831;19;9155;-80
2023/09/26 00:09:13;;;;;;;;;;;14.70;99.90;;;;;;7322611;19;9273;-81
2023/09/26 00:11:43;;;;;;;;;;;14.50;99.90;;;;;;7320330;19;9272;-81
2023/09/26 00:14:11;;;;;;;;;;;14.50;99.90;;;;;;7322086;19;9496;-81
2023/09/26 00:16:40;;;;;;;;;;;14.50;99.90;;;;;;7320074;19;9204;-81
2023/09/26 00:19:12;;;;;;;;;;;14.40;99.90;;;;;;7320339;19;9481;-81
2023/09/26 00:21:41;;;;;;;;;;;14.30;99.90;;;;;;7321539;19;10886;-81
2023/09/26 00:24:10;;;;;;;;;;;14.30;99.90;;;;;;7319470;19;9275;-81
2023/09/26 00:26:39;;;;;;;;;;;14.30;99.90;;;;;;7321492;19;9179;-81
2023/09/26 00:29:08;;;;;;;;;;;14.30;99.90;;;;;;7320593;19;9124;-81
2023/09/26 00:31:37;;;;;;;;;;;14.20;99.90;;;;;;7321213;19;9278;-81
2023/09/26 00:34:07;;;;;;;;;;;14.20;99.90;;;;;;7316503;19;10922;-81
2023/09/26 00:36:38;;;;;;;;;;;14.20;99.90;;;;;;7320078;19;9106;-81
2023/09/26 00:39:08;;;;;;;;;;;14.20;99.90;;;;;;7318771;19;9301;-81
2023/09/26 00:41:36;;;;;;;;;;;14.10;99.90;;;;;;7319364;19;9173;-81
2023/09/26 00:44:06;;;;;;;;;;;14.10;99.90;;;;;;7319633;19;9190;-81
2023/09/26 00:46:36;;;;;;;;;;;14.00;99.90;;;;;;7319783;19;9231;-81
2023/09/26 00:49:06;;;;;;;;;;;13.90;99.90;;;;;;7320155;19;9610;-81
2023/09/26 00:51:39;;;;;;;;;;;13.90;99.90;;;;;;7326312;19;9356;-81
2023/09/26 00:54:13;;;;;;;;;;;13.90;99.90;;;;;;7325563;19;9234;-81
2023/09/26 00:56:42;;;;;;;;;;;13.80;99.90;;;;;;7323280;19;9392;-81
2023/09/26 00:59:11;;;;;;;;;;;13.80;99.90;;;;;;7325503;19;9286;-81
2023/09/26 01:02:01;;;;;;;;;;;13.80;99.90;;;;;;7323268;19;9282;-81
2023/09/26 01:04:31;;;;;;;;;;;13.70;99.90;;;;;;7322844;19;9186;-81
2023/09/26 01:07:02;;;;;;;;;;;13.70;99.90;;;;;;7325301;19;9254;-81
2023/09/26 01:09:32;;;;;;;;;;;13.60;99.90;;;;;;7324552;19;9472;-81
2023/09/26 01:12:01;;;;;;;;;;;13.60;99.90;;;;;;7326180;19;9578;-81
2023/09/26 01:14:31;;;;;;;;;;;13.50;99.90;;;;;;7323375;19;9217;-81
2023/09/26 01:17:00;;;;;;;;;;;13.50;99.90;;;;;;7325486;19;11206;-81
2023/09/26 01:19:29;;;;;;;;;;;13.50;99.90;;;;;;7325454;19;9530;-81
2023/09/26 01:21:58;;;;;;;;;;;13.50;99.90;;;;;;7326258;19;11502;-81
2023/09/26 01:24:30;;;;;;;;;;;13.50;99.90;;;;;;7325699;19;9258;-81
2023/09/26 01:26:59;;;;;;;;;;;13.40;99.90;;;;;;7324923;19;9363;-81
2023/09/26 01:29:28;;;;;;;;;;;13.40;99.90;;;;;;7324622;19;9237;-81
2023/09/26 01:31:57;;;;;;;;;;;13.40;99.90;;;;;;7324909;19;9257;-81
2023/09/26 01:34:25;;;;;;;;;;;13.40;99.90;;;;;;7322656;19;8944;-81
2023/09/26 01:36:54;;;;;;;;;;;13.30;99.90;;;;;;7324936;19;9249;-81
2023/09/26 01:39:23;;;;;;;;;;;13.30;99.90;;;;;;7325640;19;9179;-81
2023/09/26 01:41:56;;;;;;;;;;;13.30;99.90;;;;;;7324653;19;9119;-81
2023/09/26 01:44:25;;;;;;;;;;;13.20;99.90;;;;;;7324263;19;10150;-81
2023/09/26 01:46:54;;;;;;;;;;;13.10;99.90;;;;;;7325650;19;9722;-81
2023/09/26 01:49:23;;;;;;;;;;;13.00;99.90;;;;;;7324134;19;10360;-80
2023/09/26 01:51:52;;;;;;;;;;;13.00;99.90;;;;;;7325470;19;9234;-80
2023/09/26 01:54:21;;;;;;;;;;;13.00;99.90;;;;;;7323813;19;9599;-81
2023/09/26 01:56:50;;;;;;;;;;;13.00;99.90;;;;;;7322214;19;9238;-81
2023/09/26 01:59:21;;;;;;;;;;;13.00;99.90;;;;;;7323665;19;9401;-81
2023/09/26 02:01:50;;;;;;;;;;;13.00;99.90;;;;;;7323343;19;9195;-81
2023/09/26 02:04:19;;;;;;;;;;;13.00;99.90;;;;;;7319452;19;9412;-81
2023/09/26 02:06:49;;;;;;;;;;;13.00;99.90;;;;;;7323916;19;9287;-80
2023/09/26 02:09:18;;;;;;;;;;;13.00;99.90;;;;;;7325563;19;10159;-81
2023/09/26 02:11:47;;;;;;;;;;;13.00;99.90;;;;;;7323915;19;9230;-81
2023/09/26 02:14:16;;;;;;;;;;;13.10;99.90;;;;;;7326220;19;9639;-81
2023/09/26 02:16:47;;;;;;;;;;;13.10;99.90;;;;;;7324408;19;9508;-81
2023/09/26 02:19:16;;;;;;;;;;;13.10;99.90;;;;;;7326002;19;9177;-81
2023/09/26 02:21:45;;;;;;;;;;;13.10;99.90;;;;;;7325663;19;9183;-81
2023/09/26 02:24:14;;;;;;;;;;;13.00;99.90;;;;;;7325385;19;9306;-81
2023/09/26 02:26:43;;;;;;;;;;;13.00;99.90;;;;;;7323925;19;9510;-81
2023/09/26 02:29:12;;;;;;;;;;;13.00;99.90;;;;;;7323300;19;9405;-81
2023/09/26 02:31:41;;;;;;;;;;;12.90;99.90;;;;;;7323783;19;9496;-80
2023/09/26 02:34:10;;;;;;;;;;;12.90;99.90;;;;;;7321198;19;9159;-81
2023/09/26 02:36:39;;;;;;;;;;;12.90;99.90;;;;;;7324443;19;9155;-81
2023/09/26 02:39:08;;;;;;;;;;;12.80;99.90;;;;;;7323021;19;9000;-81
2023/09/26 02:41:37;;;;;;;;;;;12.80;99.90;;;;;;7323674;19;10332;-81
2023/09/26 02:44:06;;;;;;;;;;;12.80;99.90;;;;;;7322354;19;9410;-81
2023/09/26 02:46:35;;;;;;;;;;;12.70;99.90;;;;;;7323183;19;9309;-81
2023/09/26 02:49:04;;;;;;;;;;;12.70;99.90;;;;;;7320195;19;9233;-81
2023/09/26 02:51:36;;;;;;;;;;;12.70;99.90;;;;;;7321783;19;9636;-81
2023/09/26 02:54:05;;;;;;;;;;;12.60;99.90;;;;;;7323090;19;9281;-81
2023/09/26 02:56:34;;;;;;;;;;;12.60;99.90;;;;;;7320564;19;10381;-81
2023/09/26 02:59:03;;;;;;;;;;;12.50;99.90;;;;;;7316639;19;9491;-81
2023/09/26 03:01:32;;;;;;;;;;;12.50;99.90;;;;;;7319241;19;10119;-81
2023/09/26 03:04:01;;;;;;;;;;;12.40;99.90;;;;;;7323641;19;9933;-81
2023/09/26 03:06:30;;;;;;;;;;;12.40;99.90;;;;;;7323509;19;8952;-81
2023/09/26 03:09:08;;;;;;;;;;;12.40;99.90;;;;;;7322436;19;9215;-81
2023/09/26 03:11:37;;;;;;;;;;;12.40;99.90;;;;;;7319387;19;10155;-81
2023/09/26 03:14:06;;;;;;;;;;;12.40;99.90;;;;;;7316959;19;10202;-81
2023/09/26 03:16:35;;;;;;;;;;;12.30;99.90;;;;;;7320335;19;9435;-81
2023/09/26 03:19:04;;;;;;;;;;;12.40;99.90;;;;;;7321751;19;9593;-80
2023/09/26 03:21:33;;;;;;;;;;;12.30;99.90;;;;;;7323520;19;9358;-81
2023/09/26 03:24:02;;;;;;;;;;;12.30;99.90;;;;;;7323499;19;9227;-81
2023/09/26 03:26:34;;;;;;;;;;;12.30;99.90;;;;;;7323675;19;9613;-80
2023/09/26 03:29:03;;;;;;;;;;;12.30;99.90;;;;;;7323384;19;9499;-80
2023/09/26 03:31:34;;;;;;;;;;;12.20;99.90;;;;;;7323256;19;9155;-81
2023/09/26 03:34:03;;;;;;;;;;;12.20;99.90;;;;;;7323765;19;9224;-81
2023/09/26 03:36:32;;;;;;;;;;;12.20;99.90;;;;;;7320331;19;9202;-81
2023/09/26 03:39:02;;;;;;;;;;;12.20;99.90;;;;;;7322859;19;9553;-81
2023/09/26 03:41:35;;;;;;;;;;;12.20;99.90;;;;;;7318053;19;9293;-81
2023/09/26 03:44:04;;;;;;;;;;;12.20;99.90;;;;;;7321526;19;9234;-80
2023/09/26 03:46:35;;;;;;;;;;;12.10;99.90;;;;;;7321660;19;9184;-81
2023/09/26 03:49:04;;;;;;;;;;;12.10;99.90;;;;;;7319606;19;8944;-81
2023/09/26 03:51:33;;;;;;;;;;;12.10;99.90;;;;;;7321103;19;9035;-81
2023/09/26 03:54:02;;;;;;;;;;;12.10;99.90;;;;;;7322480;19;9194;-81
2023/09/26 03:56:34;;;;;;;;;;;12.10;99.90;;;;;;7320115;19;9459;-81
2023/09/26 03:59:02;;;;;;;;;;;12.10;99.90;;;;;;7319402;19;9276;-81
2023/09/26 04:01:51;;;;;;;;;;;12.10;99.90;;;;;;7319518;19;9214;-81
2023/09/26 04:04:20;;;;;;;;;;;12.10;99.90;;;;;;7318031;19;9467;-81
2023/09/26 04:06:49;;;;;;;;;;;12.10;99.90;;;;;;7321611;19;9332;-81
2023/09/26 04:09:19;;;;;;;;;;;12.00;99.90;;;;;;7320326;19;9237;-81
2023/09/26 04:11:50;;;;;;;;;;;12.10;99.90;;;;;;7321676;19;9618;-80
2023/09/26 04:14:19;;;;;;;;;;;12.10;99.90;;;;;;7320559;19;9852;-81
2023/09/26 04:16:48;;;;;;;;;;;12.00;99.90;;;;;;7321923;19;9178;-81
2023/09/26 04:19:17;;;;;;;;;;;12.00;99.90;;;;;;7319955;19;9139;-81
2023/09/26 04:21:47;;;;;;;;;;;12.00;99.90;;;;;;7319359;19;9653;-81
2023/09/26 04:24:16;;;;;;;;;;;12.00;99.90;;;;;;7321009;19;9239;-81
2023/09/26 04:26:45;;;;;;;;;;;12.10;99.90;;;;;;7321430;19;9551;-81
2023/09/26 04:29:17;;;;;;;;;;;12.00;99.90;;;;;;7319124;19;10687;-81
2023/09/26 04:31:46;;;;;;;;;;;12.00;99.90;;;;;;7320105;19;9301;-81
2023/09/26 04:34:15;;;;;;;;;;;12.00;99.90;;;;;;7319111;19;9419;-81
2023/09/26 04:36:44;;;;;;;;;;;11.90;99.90;;;;;;7321100;19;9247;-81
2023/09/26 04:39:13;;;;;;;;;;;11.90;99.90;;;;;;7317819;19;9223;-81
2023/09/26 04:41:42;;;;;;;;;;;11.80;99.90;;;;;;7320450;19;9202;-81
2023/09/26 04:44:11;;;;;;;;;;;11.80;99.90;;;;;;7320305;19;9552;-81
2023/09/26 04:46:42;;;;;;;;;;;11.80;99.90;;;;;;7321500;19;9472;-81
2023/09/26 04:49:14;;;;;;;;;;;11.90;99.90;;;;;;7321002;19;9591;-81
2023/09/26 04:51:44;;;;;;;;;;;11.90;99.90;;;;;;7320358;19;9291;-81
2023/09/26 04:54:13;;;;;;;;;;;11.90;99.90;;;;;;7319685;19;9411;-81
2023/09/26 04:56:42;;;;;;;;;;;11.80;99.90;;;;;;7319748;19;10292;-80
2023/09/26 04:59:11;;;;;;;;;;;11.80;99.90;;;;;;7321093;19;9184;-79
2023/09/26 05:02:03;;;;;;;;;;;11.80;99.90;;;;;;7318437;19;9514;-80
2023/09/26 05:04:32;;;;;;;;;;;11.80;99.90;;;;;;7317577;19;9229;-80
2023/09/26 05:07:00;;;;;;;;;;;11.80;99.90;;;;;;7321357;19;9122;-80
2023/09/26 05:09:30;;;;;;;;;;;11.80;99.90;;;;;;7318862;19;9599;-80
2023/09/26 05:11:59;;;;;;;;;;;11.80;99.90;;;;;;7319230;19;10627;-80
2023/09/26 05:14:28;;;;;;;;;;;11.80;99.90;;;;;;7320449;19;9486;-81
2023/09/26 05:16:57;;;;;;;;;;;11.80;99.90;;;;;;7319250;19;11191;-81
2023/09/26 05:19:29;;;;;;;;;;;11.80;99.90;;;;;;7320238;19;9269;-81
2023/09/26 05:21:57;;;;;;;;;;;11.90;99.90;;;;;;7318488;19;9052;-80
2023/09/26 05:24:26;;;;;;;;;;;11.80;99.90;;;;;;7320099;19;9290;-81
2023/09/26 05:26:55;;;;;;;;;;;11.90;99.90;;;;;;7319073;19;9396;-81
2023/09/26 05:29:24;;;;;;;;;;;11.80;99.90;;;;;;7319221;19;9175;-81
2023/09/26 05:31:53;;;;;;;;;;;11.90;99.90;;;;;;7317268;19;9138;-79
2023/09/26 05:34:22;;;;;;;;;;;11.90;99.90;;;;;;7311779;19;9414;-83
2023/09/26 05:36:54;;;;;;;;;;;11.80;99.90;;;;;;7319824;19;9241;-86
2023/09/26 05:39:23;;;;;;;;;;;11.80;99.90;;;;;;7316315;19;9475;-80
2023/09/26 05:41:52;;;;;;;;;;;11.80;99.90;;;;;;7320205;19;9429;-81
2023/09/26 05:44:21;;;;;;;;;;;11.80;99.90;;;;;;7322620;19;9607;-79
2023/09/26 05:46:49;;;;;;;;;;;11.80;99.90;;;;;;7324508;19;8944;-79
2023/09/26 05:49:18;;;;;;;;;;;11.80;99.90;;;;;;7315097;19;9174;-81
2023/09/26 05:51:47;;;;;;;;;;;11.80;99.90;;;;;;7313998;19;9567;-81
2023/09/26 05:54:19;;;;;;;;;;;11.80;99.90;;;;;;7318364;19;9304;-80
2023/09/26 05:57:08;;;;;;;;;;;11.80;99.90;;;;;;7305162;19;10004;-80
2023/09/26 05:59:37;;;;;;;;;;;11.80;99.90;;;;;;7320797;19;9503;-81
2023/09/26 06:02:06;;;;;;;;;;;11.90;99.90;;;;;;7310023;19;9527;-78
2023/09/26 06:04:35;;;;;;;;;;;11.90;99.90;;;;;;7309860;19;9261;-79
2023/09/26 06:07:03;;;;;;;;;;;11.90;99.90;;;;;;7324883;19;9531;-79
2023/09/26 06:09:36;;;;;;;;;;;11.90;99.90;;;;;;7320757;19;9255;-79
2023/09/26 06:12:05;;;;;;;;;;;11.90;99.90;;;;;;7318348;19;9210;-79
2023/09/26 06:14:34;;;;;;;;;;;11.90;99.90;;;;;;7320121;19;8944;-79
2023/09/26 06:17:03;;;;;;;;;;;12.00;99.90;;;;;;7321750;19;10210;-81
2023/09/26 06:19:32;;;;;;;;;;;12.00;99.90;;;;;;7319153;19;9457;-81
2023/09/26 06:22:01;;;;;;;;;;;12.00;99.90;;;;;;7319090;19;9245;-80
2023/09/26 06:24:30;;;;;;;;;;;12.10;99.90;;;;;;7322567;19;9258;-81
2023/09/26 06:27:02;;;;;;;;;;;12.10;99.90;;;;;;7309734;19;8944;-81
2023/09/26 06:29:31;;;;;;;;;;;12.20;99.90;;;;;;7319094;19;9763;-80
2023/09/26 06:32:00;;;;;;;;;;;12.20;99.90;;;;;;7319808;19;9174;-80
2023/09/26 06:34:31;;;;;;;;;;;12.20;99.90;;;;;;7316065;19;9265;-80
2023/09/26 06:37:00;;;;;;;;;;;12.20;99.90;;;;;;7320442;19;9546;-80
2023/09/26 06:39:29;;;;;;;;;;;12.20;99.90;;;;;;7314708;19;9261;-80
2023/09/26 06:41:58;;;;;;;;;;;12.30;99.90;;;;;;7317706;19;11188;-79
2023/09/26 06:44:30;;;;;;;;;;;12.40;99.90;;;;;;7318532;19;9260;-81
2023/09/26 06:46:59;;;;;;;;;;;12.40;99.90;;;;;;7321004;19;9229;-80
2023/09/26 06:49:28;;;;;;;;;;;12.50;99.90;;;;;;7318421;19;9415;-81
2023/09/26 06:51:57;;;;;;;;;;;12.50;99.90;;;;;;7321308;19;9532;-80
2023/09/26 06:54:26;;;;;;;;;;;12.50;99.90;;;;;;7319202;19;9244;-80
2023/09/26 06:56:55;;;;;;;;;;;12.60;99.90;;;;;;7316628;19;9254;-80
2023/09/26 06:59:24;;;;;;;;;;;12.60;99.90;;;;;;7317519;19;9274;-80
2023/09/26 07:01:55;;;;;;;;;;;12.60;99.90;;;;;;7319569;19;9289;-80
2023/09/26 07:04:25;;;;;;;;;;;12.60;99.90;;;;;;7320917;19;9234;-80
2023/09/26 07:06:54;;;;;;;;;;;12.70;99.90;;;;;;7322405;19;9427;-80
2023/09/26 07:09:23;;;;;;;;;;;12.70;99.90;;;;;;7322375;19;9442;-80
2023/09/26 07:11:52;;;;;;;;;;;12.80;99.90;;;;;;7322170;19;9230;-80
2023/09/26 07:14:21;;;;;;;;;;;12.90;99.90;;;;;;7323764;19;9216;-80
2023/09/26 07:16:51;;;;;;;;;;;12.90;99.90;;;;;;7321885;19;10908;-80
2023/09/26 07:19:23;;;;;;;;;;;13.00;99.90;;;;;;7322449;19;11043;-81
2023/09/26 07:21:52;;;;;;;;;;;13.10;99.90;;;;;;7322318;19;9261;-80
2023/09/26 07:24:20;;;;;;;;;;;13.20;99.90;;;;;;7322694;19;9548;-80
2023/09/26 07:26:50;;;;;;;;;;;13.60;99.90;;;;;;7320865;19;9258;-81
2023/09/26 07:29:19;;;;;;;;;;;14.10;99.90;;;;;;7321255;19;10446;-81
2023/09/26 07:31:48;;;;;;;;;;;14.20;99.90;;;;;;7321724;19;9171;-81
2023/09/26 07:34:17;;;;;;;;;;;14.30;99.90;;;;;;7318558;19;9601;-81
2023/09/26 07:36:49;;;;;;;;;;;14.30;99.90;;;;;;7323613;19;9251;-81
2023/09/26 07:39:18;;;;;;;;;;;14.40;99.90;;;;;;7323034;19;9222;-81
2023/09/26 07:41:47;;;;;;;;;;;14.50;99.90;;;;;;7319489;19;9180;-80
2023/09/26 07:44:16;;;;;;;;;;;14.80;99.90;;;;;;7319826;19;9267;-81
2023/09/26 07:46:44;;;;;;;;;;;14.90;99.90;;;;;;7320728;19;9428;-81
2023/09/26 07:49:13;;;;;;;;;;;14.90;99.90;;;;;;7323141;19;9612;-81
2023/09/26 07:51:42;;;;;;;;;;;15.10;99.90;;;;;;7321441;19;9624;-80
2023/09/26 07:54:35;;;;;;;;;;;15.20;99.90;;;;;;7321159;19;9269;-81
2023/09/26 07:57:04;;;;;;;;;;;15.20;99.90;;;;;;7319631;19;9223;-80
2023/09/26 07:59:34;;;;;;;;;;;15.20;99.90;;;;;;7319411;19;9001;-81
2023/09/26 08:02:03;;;;;;;;;;;15.20;99.90;;;;;;7322285;19;9215;-81
2023/09/26 08:04:31;;;;;;;;;;;15.20;99.90;;;;;;7319638;19;9747;-81
2023/09/26 08:07:00;;;;;;;;;;;15.20;99.90;;;;;;7318804;19;9247;-80
2023/09/26 08:09:29;;;;;;;;;;;15.20;99.90;;;;;;7321119;19;9162;-81
2023/09/26 08:12:02;;;;;;;;;;;15.20;99.90;;;;;;7321238;19;10137;-80
2023/09/26 08:14:31;;;;;;;;;;;15.20;99.90;;;;;;7320734;19;9233;-80
2023/09/26 08:17:00;;;;;;;;;;;15.20;99.90;;;;;;7322538;19;9287;-81
2023/09/26 08:19:29;;;;;;;;;;;15.20;99.90;;;;;;7321131;19;9473;-80
2023/09/26 08:21:57;;;;;;;;;;;15.30;99.90;;;;;;7321348;19;9178;-81
2023/09/26 08:24:26;;;;;;;;;;;15.40;99.90;;;;;;7322400;19;9141;-81
2023/09/26 08:26:55;;;;;;;;;;;15.40;99.90;;;;;;7320697;19;9460;-81
2023/09/26 08:29:27;;;;;;;;;;;15.50;99.90;;;;;;7320156;19;9285;-81
2023/09/26 08:31:56;;;;;;;;;;;15.60;99.90;;;;;;7320695;19;9684;-80
2023/09/26 08:34:26;;;;;;;;;;;15.60;99.90;;;;;;7319029;19;9234;-81
2023/09/26 08:36:55;;;;;;;;;;;15.70;99.90;;;;;;7320606;19;9404;-81
2023/09/26 08:39:24;;;;;;;;;;;15.90;99.90;;;;;;7320109;19;9240;-81
2023/09/26 08:41:54;;;;;;;;;;;16.00;99.90;;;;;;7321617;19;9247;-81
2023/09/26 08:44:23;;;;;;;;;;;16.10;99.90;;;;;;7319723;19;9218;-81
2023/09/26 08:47:15;;;;;;;;;;;16.20;99.90;;;;;;7319196;19;9198;-81
2023/09/26 08:49:47;;;;;;;;;;;16.20;99.90;;;;;;7321082;19;9545;-81
2023/09/26 08:52:16;;;;;;;;;;;16.20;99.90;;;;;;7321121;19;9305;-81
2023/09/26 08:54:45;;;;;;;;;;;16.30;99.90;;;;;;7320092;19;9247;-81
2023/09/26 08:57:16;;;;;;;;;;;16.50;99.90;;;;;;7316212;19;9270;-81
2023/09/26 08:59:49;;;;;;;;;;;16.60;99.90;;;;;;7318825;19;9199;-81
2023/09/26 09:02:21;;;;;;;;;;;16.80;99.90;;;;;;7321367;19;9585;-81
2023/09/26 09:04:50;;;;;;;;;;;16.90;99.90;;;;;;7316921;19;9500;-81
2023/09/26 09:07:19;;;;;;;;;;;17.00;99.90;;;;;;7319506;19;11402;-81
2023/09/26 09:10:06;;;;;;;;;;;17.10;99.90;;;;;;7318757;19;13142;-81
2023/09/26 09:12:40;;;;;;;;;;;17.00;99.90;;;;;;7324445;19;10158;-81
2023/09/26 09:15:29;;;;;;;;;;;17.00;99.90;;;;;;7326798;19;9140;-81
2023/09/26 09:18:00;;;;;;;;;;;17.00;99.90;;;;;;7326397;19;9254;-81
2023/09/26 09:20:36;;;;;;;;;;;17.10;99.90;;;;;;7326120;19;9241;-81
2023/09/26 09:23:07;;;;;;;;;;;17.20;99.90;;;;;;7325942;19;9187;-81
2023/09/26 09:25:37;;;;;;;;;;;17.30;99.90;;;;;;7327234;19;9743;-81
2023/09/26 09:28:09;;;;;;;;;;;17.30;99.90;;;;;;7325287;19;8945;-81
2023/09/26 09:30:42;;;;;;;;;;;17.40;99.90;;;;;;7323747;19;9128;-81
2023/09/26 09:33:16;;;;;;;;;;;17.50;99.90;;;;;;7323477;19;9223;-81
2023/09/26 09:35:45;;;;;;;;;;;17.60;99.90;;;;;;7325822;19;10167;-81
2023/09/26 09:38:15;;;;;;;;;;;17.70;99.90;;;;;;7326570;19;9538;-81
2023/09/26 09:40:44;;;;;;;;;;;17.80;99.90;;;;;;7323253;19;10560;-81
2023/09/26 09:43:13;;;;;;;;;;;17.80;99.90;;;;;;7326359;19;9330;-81
2023/09/26 09:45:45;;;;;;;;;;;17.80;99.90;;;;;;7324264;19;10126;-81
2023/09/26 09:48:19;;;;;;;;;;;17.80;99.90;;;;;;7326254;19;9289;-81
2023/09/26 09:50:52;;;;;;;;;;;17.80;99.90;;;;;;7325536;19;9399;-81
2023/09/26 09:53:24;;;;;;;;;;;17.90;99.90;;;;;;7326556;19;9221;-81
2023/09/26 09:55:55;;;;;;;;;;;17.80;99.90;;;;;;7323329;19;9140;-81
2023/09/26 09:58:30;;;;;;;;;;;17.90;99.90;;;;;;7322243;19;9394;-81
2023/09/26 10:01:02;;;;;;;;;;;17.90;99.90;;;;;;7324073;19;9287;-81
2023/09/26 10:03:34;;;;;;;;;;;18.00;99.90;;;;;;7323283;19;9692;-81
2023/09/26 10:06:08;;;;;;;;;;;18.10;99.90;;;;;;7324232;19;9461;-81
2023/09/26 10:08:40;;;;;;;;;;;18.10;99.90;;;;;;7323200;19;9484;-81
2023/09/26 10:11:11;;;;;;;;;;;18.30;99.90;;;;;;7325502;19;9796;-81
2023/09/26 10:14:00;;;;;;;;;;;18.40;99.90;;;;;;7321714;19;9524;-81
2023/09/26 10:16:29;;;;;;;;;;;18.50;99.90;;;;;;7321076;19;8948;-84
2023/09/26 10:19:03;;;;;;;;;;;18.60;99.90;;;;;;7314696;19;9322;-83
2023/09/26 10:21:35;;;;;;;;;;;18.70;99.90;;;;;;7316368;19;10485;-82
2023/09/26 10:24:26;;;;;;;;;;;18.70;99.90;;;;;;7323416;19;9275;-83
2023/09/26 10:26:55;;;;;;;;;;;18.80;99.90;;;;;;7323063;19;9225;-83
2023/09/26 10:29:27;;;;;;;;;;;18.80;99.90;;;;;;7322216;19;9258;-83
2023/09/26 10:31:58;;;;;;;;;;;18.90;99.90;;;;;;7321620;19;9272;-83
2023/09/26 10:34:35;;;;;;;;;;;19.00;99.90;;;;;;7319113;19;9506;-83
2023/09/26 10:37:08;;;;;;;;;;;19.00;99.90;;;;;;7321237;19;9265;-81
2023/09/26 10:39:39;;;;;;;;;;;19.00;99.90;;;;;;7320309;19;9461;-83
2023/09/26 10:42:12;;;;;;;;;;;19.00;99.90;;;;;;7318657;19;9475;-83
2023/09/26 10:44:42;;;;;;;;;;;19.00;99.90;;;;;;7311385;19;9278;-82
2023/09/26 10:47:15;;;;;;;;;;;19.00;99.90;;;;;;7307636;19;9420;-82
2023/09/26 10:49:47;;;;;;;;;;;19.00;99.90;;;;;;7320824;19;9230;-83
2023/09/26 10:52:17;;;;;;;;;;;18.90;99.90;;;;;;7321338;19;9535;-82
2023/09/26 10:54:46;;;;;;;;;;;19.10;99.90;;;;;;7322419;19;9473;-82
2023/09/26 10:57:20;;;;;;;;;;;19.10;99.90;;;;;;7315586;19;9305;-82
2023/09/26 10:59:49;;;;;;;;;;;19.20;99.90;;;;;;7319851;19;9402;-82
2023/09/26 11:02:18;;;;;;;;;;;19.40;99.90;;;;;;7319211;19;9275;-83
2023/09/26 11:04:50;;;;;;;;;;;19.50;99.90;;;;;;7311144;19;9468;-82
2023/09/26 11:07:19;;;;;;;;;;;19.60;99.90;;;;;;7316301;19;9260;-82
2023/09/26 11:09:48;;;;;;;;;;;19.70;99.90;;;;;;7312740;19;9650;-82
2023/09/26 11:12:17;;;;;;;;;;;19.80;99.90;;;;;;7322076;19;10464;-81
2023/09/26 11:14:47;;;;;;;;;;;19.80;99.90;;;;;;7323413;19;9512;-81
2023/09/26 11:17:16;;;;;;;;;;;19.80;99.90;;;;;;7321678;19;9309;-81
2023/09/26 11:19:45;;;;;;;;;;;19.80;99.90;;;;;;7321166;19;9526;-81
2023/09/26 11:22:17;;;;;;;;;;;19.80;99.90;;;;;;7323015;19;10662;-82
2023/09/26 11:24:46;;;;;;;;;;;19.80;99.90;;;;;;7323671;19;9605;-82
2023/09/26 11:27:15;;;;;;;;;;;19.90;99.90;;;;;;7317789;19;9459;-82
2023/09/26 11:30:04;;;;;;;;;;;19.90;99.90;;;;;;7317569;19;9226;-82
2023/09/26 11:32:34;;;;;;;;;;;20.00;99.90;;;;;;7323205;19;9249;-82
2023/09/26 11:35:03;;;;;;;;;;;20.00;99.90;;;;;;7316947;19;9365;-82
2023/09/26 11:37:36;;;;;;;;;;;20.10;99.90;;;;;;7322374;19;9363;-82
2023/09/26 11:40:07;;;;;;;;;;;20.10;99.90;;;;;;7321941;19;9277;-82
2023/09/26 11:42:43;;;;;;;;;;;20.10;99.90;;;;;;7319665;19;9319;-82
2023/09/26 11:45:23;;;;;;;;;;;20.10;99.90;;;;;;7323746;19;9258;-82
2023/09/26 11:47:52;;;;;;;;;;;20.10;99.90;;;;;;7322506;19;9683;-82
2023/09/26 11:50:22;;;;;;;;;;;20.10;99.90;;;;;;7318998;19;9324;-82
2023/09/26 11:52:54;;;;;;;;;;;20.10;99.90;;;;;;7322177;19;9322;-81
2023/09/26 11:55:51;;;;;;;;;;;20.10;99.90;;;;;;7318642;19;9269;-82
2023/09/26 11:58:20;;;;;;;;;;;20.10;99.90;;;;;;7318659;19;9666;-82
2023/09/26 12:00:49;;;;;;;;;;;20.10;99.90;;;;;;7321151;19;9119;-82
2023/09/26 12:03:18;;;;;;;;;;;20.10;99.90;;;;;;7319959;19;9190;-82
2023/09/26 12:05:47;;;;;;;;;;;20.10;99.90;;;;;;7318345;19;8996;-82
2023/09/26 12:08:18;;;;;;;;;;;20.20;99.90;;;;;;7321541;19;9394;-82
2023/09/26 12:10:48;;;;;;;;;;;20.20;99.90;;;;;;7322119;19;9352;-82
2023/09/26 12:13:17;;;;;;;;;;;20.30;99.90;;;;;;7321495;19;9179;-82
2023/09/26 12:15:46;;;;;;;;;;;20.30;99.90;;;;;;7319289;19;9298;-82
2023/09/26 12:18:15;;;;;;;;;;;20.30;99.90;;;;;;7320467;19;9104;-82
2023/09/26 12:20:44;;;;;;;;;;;20.30;99.90;;;;;;7321679;19;9258;-82
2023/09/26 12:23:14;;;;;;;;;;;20.40;99.90;;;;;;7321956;19;9978;-82
2023/09/26 12:25:46;;;;;;;;;;;20.40;99.90;;;;;;7321124;19;9208;-82
2023/09/26 12:28:14;;;;;;;;;;;20.40;99.50;;;;;;7321973;19;9144;-82
2023/09/26 12:30:44;;;;;;;;;;;20.40;99.80;;;;;;7318919;19;9131;-82
2023/09/26 12:33:13;;;;;;;;;;;20.50;99.20;;;;;;7319770;19;9246;-82
2023/09/26 12:35:42;;;;;;;;;;;20.50;98.80;;;;;;7319217;19;10310;-82
2023/09/26 12:38:31;;;;;;;;;;;20.50;99.30;;;;;;7319160;19;10161;-82
2023/09/26 12:41:03;;;;;;;;;;;20.50;99.10;;;;;;7319500;19;9221;-82
2023/09/26 12:43:32;;;;;;;;;;;20.50;99.10;;;;;;7319568;19;9192;-82
2023/09/26 12:46:01;;;;;;;;;;;20.50;99.00;;;;;;7320169;19;10162;-82
2023/09/26 12:48:30;;;;;;;;;;;20.60;98.80;;;;;;7320950;19;9273;-82
2023/09/26 12:50:59;;;;;;;;;;;20.60;99.20;;;;;;7320540;19;10147;-82
2023/09/26 12:53:28;;;;;;;;;;;20.60;98.80;;;;;;7319929;19;9662;-82
2023/09/26 12:55:57;;;;;;;;;;;20.60;99.00;;;;;;7318171;19;9179;-82
2023/09/26 12:58:29;;;;;;;;;;;20.70;98.60;;;;;;7316955;19;9139;-82
2023/09/26 13:00:58;;;;;;;;;;;20.70;98.20;;;;;;7320154;19;9465;-82
2023/09/26 13:03:27;;;;;;;;;;;20.80;98.50;;;;;;7317199;19;10668;-82
2023/09/26 13:05:57;;;;;;;;;;;20.80;98.90;;;;;;7319414;19;9323;-82
2023/09/26 13:08:25;;;;;;;;;;;20.80;97.90;;;;;;7318172;19;9279;-82
2023/09/26 13:10:54;;;;;;;;;;;20.80;98.90;;;;;;7320085;19;9414;-82
2023/09/26 13:13:23;;;;;;;;;;;20.90;98.90;;;;;;7320046;19;9291;-83
2023/09/26 13:15:56;;;;;;;;;;;20.90;98.50;;;;;;7318424;19;9450;-82
2023/09/26 13:18:24;;;;;;;;;;;20.90;97.60;;;;;;7321411;19;9315;-83
2023/09/26 13:20:53;;;;;;;;;;;20.90;97.80;;;;;;7320690;19;9251;-82
2023/09/26 13:23:22;;;;;;;;;;;20.90;97.30;;;;;;7320287;19;9365;-82
2023/09/26 13:25:51;;;;;;;;;;;20.90;98.00;;;;;;7319059;19;9452;-82
2023/09/26 13:28:20;;;;;;;;;;;20.90;98.70;;;;;;7319702;19;9416;-82
2023/09/26 13:30:49;;;;;;;;;;;21.00;99.40;;;;;;7320120;19;9454;-82
2023/09/26 13:33:22;;;;;;;;;;;21.00;99.50;;;;;;7317414;19;9328;-82
2023/09/26 13:35:51;;;;;;;;;;;20.90;99.30;;;;;;7319089;19;9201;-82
2023/09/26 13:38:19;;;;;;;;;;;21.00;99.00;;;;;;7319988;19;9551;-82
2023/09/26 13:40:48;;;;;;;;;;;21.10;98.30;;;;;;7320013;19;8944;-82
2023/09/26 13:43:17;;;;;;;;;;;21.20;98.10;;;;;;7318287;19;9212;-83
2023/09/26 13:45:46;;;;;;;;;;;21.20;97.90;;;;;;7319633;19;9258;-82
2023/09/26 13:48:16;;;;;;;;;;;21.20;97.40;;;;;;7319077;19;9329;-82
2023/09/26 13:50:47;;;;;;;;;;;21.20;97.60;;;;;;7319662;19;9244;-82
2023/09/26 13:53:16;;;;;;;;;;;21.20;97.70;;;;;;7317261;19;10597;-82
2023/09/26 13:55:45;;;;;;;;;;;21.30;97.20;;;;;;7316659;19;9267;-82
2023/09/26 13:58:35;;;;;;;;;;;21.40;96.90;;;;;;7315183;19;9234;-82
2023/09/26 14:01:04;;;;;;;;;;;21.50;95.60;;;;;;7308506;19;9483;-82
2023/09/26 14:03:33;;;;;;;;;;;21.50;96.70;;;;;;7320651;19;9055;-82
2023/09/26 14:06:05;;;;;;;;;;;21.60;96.10;;;;;;7323534;19;9496;-82
2023/09/26 14:08:35;;;;;;;;;;;21.70;96.10;;;;;;7323281;19;9287;-82
2023/09/26 14:11:04;;;;;;;;;;;21.80;95.30;;;;;;7324671;19;9131;-83
2023/09/26 14:13:33;;;;;;;;;;;21.90;95.00;;;;;;7323961;19;10203;-82
2023/09/26 14:16:03;;;;;;;;;;;21.90;93.00;;;;;;7323195;19;9202;-82
2023/09/26 14:18:34;;;;;;;;;;;21.90;92.50;;;;;;7323172;19;9241;-82
2023/09/26 14:21:09;;;;;;;;;;;21.90;92.40;;;;;;7323920;19;9609;-83
2023/09/26 14:23:38;;;;;;;;;;;21.90;92.40;;;;;;7312811;19;9624;-74
2023/09/26 14:26:07;;;;;;;;;;;22.00;92.60;;;;;;7320950;19;8944;-75
2023/09/26 14:28:36;;;;;;;;;;;21.90;91.60;;;;;;7323946;19;9280;-75
2023/09/26 14:31:09;;;;;;;;;;;21.90;92.30;;;;;;7322554;19;9537;-75
2023/09/26 14:33:39;;;;;;;;;;;21.70;91.40;;;;;;7319492;19;9551;-75
2023/09/26 14:36:11;;;;;;;;;;;21.70;92.70;;;;;;7312054;19;9286;-73
2023/09/26 14:38:41;;;;;;;;;;;21.50;92.40;;;;;;7321835;19;8944;-76
2023/09/26 14:41:10;;;;;;;;;;;21.40;93.40;;;;;;7317539;19;9302;-74
2023/09/26 14:43:39;;;;;;;;;;;21.30;93.50;;;;;;7307943;19;9499;-75
2023/09/26 14:46:08;;;;;;;;;;;21.20;93.00;;;;;;7320402;19;9241;-75
2023/09/26 14:48:37;;;;;;;;;;;21.20;93.40;;;;;;7322487;19;9545;-74